sensor_id;sensor_type;location;lat;lon;timestamp;pressure;altitude;pressure_sealevel;temperature;humidity
61484;BME280;47349;55.640;37.692;2023-02-17T00:02:22;100039.19;;;-6.17;77.77
61484;BME280;47349;55.640;37.692;2023-02-17T00:04:48;100044.66;;;-6.24;78.73
61484;BME280;47349;55.640;37.692;2023-02-17T00:07:16;100045.59;;;-6.26;78.76
61484;BME280;47349;55.640;37.692;2023-02-17T00:09:43;100048.28;;;-6.28;79.73
61484;BME280;47349;55.640;37.692;2023-02-17T00:12:10;100049.00;;;-6.24;79.50
61484;BME280;47349;55.640;37.692;2023-02-17T00:14:40;100036.09;;;-6.27;79.33
61484;BME280;47349;55.640;37.692;2023-02-17T00:17:07;100040.31;;;-6.25;79.82
61484;BME280;47349;55.640;37.692;2023-02-17T00:19:34;100044.94;;;-6.31;79.03
61484;BME280;47349;55.640;37.692;2023-02-17T00:22:01;100047.00;;;-6.39;78.98
61484;BME280;47349;55.640;37.692;2023-02-17T00:24:29;100051.28;;;-6.38;78.94
61484;BME280;47349;55.640;37.692;2023-02-17T00:26:56;100046.28;;;-6.43;78.46
61484;BME280;47349;55.640;37.692;2023-02-17T00:29:24;100047.41;;;-6.50;77.70
61484;BME280;47349;55.640;37.692;2023-02-17T00:31:52;100044.97;;;-6.55;78.32
61484;BME280;47349;55.640;37.692;2023-02-17T00:34:21;100044.13;;;-6.55;78.36
61484;BME280;47349;55.640;37.692;2023-02-17T00:36:49;100046.69;;;-6.54;78.93
61484;BME280;47349;55.640;37.692;2023-02-17T00:39:16;100035.97;;;-6.46;78.25
61484;BME280;47349;55.640;37.692;2023-02-17T00:41:47;100040.00;;;-6.39;78.62
61484;BME280;47349;55.640;37.692;2023-02-17T00:44:18;100033.34;;;-6.46;78.98
61484;BME280;47349;55.640;37.692;2023-02-17T00:46:45;100028.25;;;-6.49;79.17
61484;BME280;47349;55.640;37.692;2023-02-17T00:49:14;100035.88;;;-6.44;79.72
61484;BME280;47349;55.640;37.692;2023-02-17T00:51:42;100029.09;;;-6.49;79.58
61484;BME280;47349;55.640;37.692;2023-02-17T00:54:09;100028.91;;;-6.44;79.80
61484;BME280;47349;55.640;37.692;2023-02-17T00:56:36;100026.28;;;-6.42;79.40
61484;BME280;47349;55.640;37.692;2023-02-17T00:59:03;100026.09;;;-6.38;79.32
61484;BME280;47349;55.640;37.692;2023-02-17T01:01:30;100009.56;;;-6.38;79.53
61484;BME280;47349;55.640;37.692;2023-02-17T01:03:58;100016.31;;;-6.33;79.20
61484;BME280;47349;55.640;37.692;2023-02-17T01:06:32;100013.94;;;-6.39;80.30
61484;BME280;47349;55.640;37.692;2023-02-17T01:09:00;100022.13;;;-6.48;79.89
61484;BME280;47349;55.640;37.692;2023-02-17T01:11:28;100014.25;;;-6.47;80.94
61484;BME280;47349;55.640;37.692;2023-02-17T01:13:56;100011.50;;;-6.43;80.55
61484;BME280;47349;55.640;37.692;2023-02-17T01:16:26;100020.22;;;-6.43;81.13
61484;BME280;47349;55.640;37.692;2023-02-17T01:18:53;100011.28;;;-6.37;81.24
61484;BME280;47349;55.640;37.692;2023-02-17T01:21:24;100016.25;;;-6.31;80.80
61484;BME280;47349;55.640;37.692;2023-02-17T01:23:52;100011.78;;;-6.28;80.22
61484;BME280;47349;55.640;37.692;2023-02-17T01:26:21;100015.06;;;-6.24;79.97
61484;BME280;47349;55.640;37.692;2023-02-17T01:28:49;100013.19;;;-6.21;80.88
61484;BME280;47349;55.640;37.692;2023-02-17T01:31:17;100013.09;;;-6.17;80.80
61484;BME280;47349;55.640;37.692;2023-02-17T01:33:44;100013.09;;;-6.17;79.83
61484;BME280;47349;55.640;37.692;2023-02-17T01:36:14;100015.81;;;-6.21;79.36
61484;BME280;47349;55.640;37.692;2023-02-17T01:38:41;100013.56;;;-6.30;79.74
61484;BME280;47349;55.640;37.692;2023-02-17T01:41:08;100018.56;;;-6.24;80.06
61484;BME280;47349;55.640;37.692;2023-02-17T01:43:35;100010.00;;;-6.27;80.32
61484;BME280;47349;55.640;37.692;2023-02-17T01:46:04;100015.22;;;-6.27;80.36
61484;BME280;47349;55.640;37.692;2023-02-17T01:48:42;100017.69;;;-6.24;80.67
61484;BME280;47349;55.640;37.692;2023-02-17T01:51:20;100015.97;;;-6.24;80.81
61484;BME280;47349;55.640;37.692;2023-02-17T01:53:56;100021.41;;;-6.30;80.83
61484;BME280;47349;55.640;37.692;2023-02-17T01:56:24;100015.97;;;-6.24;81.11
61484;BME280;47349;55.640;37.692;2023-02-17T01:58:53;100016.53;;;-6.17;81.08
61484;BME280;47349;55.640;37.692;2023-02-17T02:01:21;100020.25;;;-6.23;80.52
61484;BME280;47349;55.640;37.692;2023-02-17T02:03:49;100023.78;;;-6.24;81.10
61484;BME280;47349;55.640;37.692;2023-02-17T02:06:19;100016.34;;;-6.34;80.80
61484;BME280;47349;55.640;37.692;2023-02-17T02:08:58;100026.03;;;-6.36;82.00
61484;BME280;47349;55.640;37.692;2023-02-17T02:11:28;100021.72;;;-6.37;82.11
61484;BME280;47349;55.640;37.692;2023-02-17T02:13:55;100025.28;;;-6.40;82.00
61484;BME280;47349;55.640;37.692;2023-02-17T02:21:38;100013.19;;;-6.21;81.72
61484;BME280;47349;55.640;37.692;2023-02-17T02:35:19;100015.41;;;-6.32;82.46
61484;BME280;47349;55.640;37.692;2023-02-17T02:40:30;100017.22;;;-6.34;82.57
61484;BME280;47349;55.640;37.692;2023-02-17T02:42:59;100013.53;;;-6.28;83.45
61484;BME280;47349;55.640;37.692;2023-02-17T02:45:27;100014.59;;;-6.34;83.78
61484;BME280;47349;55.640;37.692;2023-02-17T02:47:55;100014.78;;;-6.38;83.28
61484;BME280;47349;55.640;37.692;2023-02-17T03:00:45;100021.94;;;-6.65;85.62
61484;BME280;47349;55.640;37.692;2023-02-17T03:03:27;100024.47;;;-6.64;86.47
61484;BME280;47349;55.640;37.692;2023-02-17T03:05:59;100021.09;;;-6.66;86.40
61484;BME280;47349;55.640;37.692;2023-02-17T03:08:34;100021.81;;;-6.62;86.70
61484;BME280;47349;55.640;37.692;2023-02-17T03:11:02;100021.03;;;-6.64;86.59
61484;BME280;47349;55.640;37.692;2023-02-17T03:13:33;100026.41;;;-6.69;86.37
61484;BME280;47349;55.640;37.692;2023-02-17T03:16:07;100031.63;;;-6.69;87.91
61484;BME280;47349;55.640;37.692;2023-02-17T03:18:35;100036.09;;;-6.73;87.10
61484;BME280;47349;55.640;37.692;2023-02-17T03:21:07;100026.59;;;-6.74;87.70
61484;BME280;47349;55.640;37.692;2023-02-17T03:23:37;100022.41;;;-6.78;87.06
61484;BME280;47349;55.640;37.692;2023-02-17T03:26:05;100021.78;;;-6.84;88.16
61484;BME280;47349;55.640;37.692;2023-02-17T03:28:32;100022.88;;;-6.90;88.74
61484;BME280;47349;55.640;37.692;2023-02-17T03:30:59;100017.03;;;-6.96;88.84
61484;BME280;47349;55.640;37.692;2023-02-17T03:33:26;100024.84;;;-6.96;89.11
61484;BME280;47349;55.640;37.692;2023-02-17T03:35:54;100025.75;;;-6.97;89.03
61484;BME280;47349;55.640;37.692;2023-02-17T03:38:22;100035.25;;;-6.96;89.83
61484;BME280;47349;55.640;37.692;2023-02-17T03:40:49;100024.91;;;-6.98;89.23
61484;BME280;47349;55.640;37.692;2023-02-17T03:43:16;100024.06;;;-6.99;89.06
61484;BME280;47349;55.640;37.692;2023-02-17T03:45:43;100021.34;;;-6.95;89.74
61484;BME280;47349;55.640;37.692;2023-02-17T03:48:10;100023.78;;;-6.91;89.29
61484;BME280;47349;55.640;37.692;2023-02-17T03:50:37;100019.47;;;-6.92;89.23
61484;BME280;47349;55.640;37.692;2023-02-17T03:53:05;100017.78;;;-6.93;89.37
61484;BME280;47349;55.640;37.692;2023-02-17T03:55:32;100019.69;;;-6.98;88.94
61484;BME280;47349;55.640;37.692;2023-02-17T03:57:59;100016.31;;;-7.00;89.40
61484;BME280;47349;55.640;37.692;2023-02-17T04:00:26;100022.38;;;-7.00;89.29
61484;BME280;47349;55.640;37.692;2023-02-17T04:02:53;100019.81;;;-7.01;88.99
61484;BME280;47349;55.640;37.692;2023-02-17T04:05:22;100025.09;;;-7.03;89.46
61484;BME280;47349;55.640;37.692;2023-02-17T04:07:50;100027.84;;;-7.07;89.30
61484;BME280;47349;55.640;37.692;2023-02-17T04:10:18;100033.91;;;-7.07;90.36
61484;BME280;47349;55.640;37.692;2023-02-17T04:12:45;100029.50;;;-7.05;90.14
61484;BME280;47349;55.640;37.692;2023-02-17T04:15:12;100034.81;;;-7.08;89.49
61484;BME280;47349;55.640;37.692;2023-02-17T04:17:39;100036.59;;;-7.08;89.78
61484;BME280;47349;55.640;37.692;2023-02-17T04:20:06;100037.59;;;-7.12;90.15
61484;BME280;47349;55.640;37.692;2023-02-17T04:22:33;100037.53;;;-7.11;90.04
61484;BME280;47349;55.640;37.692;2023-02-17T04:25:00;100038.44;;;-7.12;90.24
61484;BME280;47349;55.640;37.692;2023-02-17T04:27:28;100025.47;;;-7.13;90.61
61484;BME280;47349;55.640;37.692;2023-02-17T04:29:55;100032.38;;;-7.12;90.34
61484;BME280;47349;55.640;37.692;2023-02-17T04:32:23;100027.25;;;-7.14;90.72
61484;BME280;47349;55.640;37.692;2023-02-17T04:34:50;100023.66;;;-7.11;90.31
61484;BME280;47349;55.640;37.692;2023-02-17T04:37:17;100027.06;;;-7.09;90.87
61484;BME280;47349;55.640;37.692;2023-02-17T04:39:44;100022.72;;;-7.09;90.42
61484;BME280;47349;55.640;37.692;2023-02-17T04:42:11;100018.34;;;-7.08;90.58
61484;BME280;47349;55.640;37.692;2023-02-17T04:44:38;100018.34;;;-7.08;90.09
61484;BME280;47349;55.640;37.692;2023-02-17T04:47:05;100010.47;;;-7.07;90.01
61484;BME280;47349;55.640;37.692;2023-02-17T04:49:32;100018.13;;;-7.02;90.32
61484;BME280;47349;55.640;37.692;2023-02-17T04:52:00;100023.16;;;-6.97;90.44
61484;BME280;47349;55.640;37.692;2023-02-17T04:54:27;100021.22;;;-6.92;89.84
61484;BME280;47349;55.640;37.692;2023-02-17T04:56:54;100024.47;;;-6.86;90.26
61484;BME280;47349;55.640;37.692;2023-02-17T04:59:22;100013.91;;;-6.83;90.47
61484;BME280;47349;55.640;37.692;2023-02-17T05:01:51;100026.16;;;-6.85;90.02
61484;BME280;47349;55.640;37.692;2023-02-17T05:04:18;100037.94;;;-6.98;90.28
61484;BME280;47349;55.640;37.692;2023-02-17T05:06:45;100033.75;;;-7.02;90.76
61484;BME280;47349;55.640;37.692;2023-02-17T05:09:12;100041.84;;;-7.10;91.79
61484;BME280;47349;55.640;37.692;2023-02-17T05:11:39;100040.38;;;-7.17;92.49
61484;BME280;47349;55.640;37.692;2023-02-17T05:14:07;100040.44;;;-7.18;92.90
61484;BME280;47349;55.640;37.692;2023-02-17T05:16:34;100032.84;;;-7.25;93.02
61484;BME280;47349;55.640;37.692;2023-02-17T05:19:02;100037.88;;;-7.20;93.65
61484;BME280;47349;55.640;37.692;2023-02-17T05:21:39;100033.19;;;-7.10;93.95
61484;BME280;47349;55.640;37.692;2023-02-17T05:24:06;100034.72;;;-7.05;93.64
61484;BME280;47349;55.640;37.692;2023-02-17T05:26:34;100039.63;;;-6.97;93.25
61484;BME280;47349;55.640;37.692;2023-02-17T05:29:01;100032.56;;;-6.93;93.07
61484;BME280;47349;55.640;37.692;2023-02-17T05:31:28;100041.78;;;-6.85;92.59
61484;BME280;47349;55.640;37.692;2023-02-17T05:34:09;100043.50;;;-6.84;91.63
61484;BME280;47349;55.640;37.692;2023-02-17T05:36:36;100038.94;;;-6.79;91.49
61484;BME280;47349;55.640;37.692;2023-02-17T05:39:03;100036.66;;;-6.64;92.17
61484;BME280;47349;55.640;37.692;2023-02-17T05:41:30;100034.44;;;-6.52;90.91
61484;BME280;47349;55.640;37.692;2023-02-17T05:44:13;100039.00;;;-6.57;90.44
61484;BME280;47349;55.640;37.692;2023-02-17T05:46:40;100033.97;;;-6.61;91.02
61484;BME280;47349;55.640;37.692;2023-02-17T05:49:07;100038.81;;;-6.52;91.00
61484;BME280;47349;55.640;37.692;2023-02-17T05:51:35;100041.41;;;-6.52;89.88
61484;BME280;47349;55.640;37.692;2023-02-17T05:54:02;100031.78;;;-6.50;89.93
61484;BME280;47349;55.640;37.692;2023-02-17T05:56:29;100033.25;;;-6.43;90.28
61484;BME280;47349;55.640;37.692;2023-02-17T05:58:56;100042.59;;;-6.37;90.88
61484;BME280;47349;55.640;37.692;2023-02-17T06:01:24;100040.34;;;-6.47;90.49
61484;BME280;47349;55.640;37.692;2023-02-17T06:03:52;100044.34;;;-6.38;91.28
61484;BME280;47349;55.640;37.692;2023-02-17T06:06:19;100042.41;;;-6.33;90.75
61484;BME280;47349;55.640;37.692;2023-02-17T06:08:47;100036.44;;;-6.36;90.08
61484;BME280;47349;55.640;37.692;2023-02-17T06:11:14;100036.13;;;-6.29;90.19
61484;BME280;47349;55.640;37.692;2023-02-17T06:13:42;100039.22;;;-6.19;90.70
61484;BME280;47349;55.640;37.692;2023-02-17T06:16:09;100039.75;;;-6.11;90.43
61484;BME280;47349;55.640;37.692;2023-02-17T06:18:36;100039.69;;;-6.09;90.18
61484;BME280;47349;55.640;37.692;2023-02-17T06:21:03;100042.31;;;-6.09;90.55
61484;BME280;47349;55.640;37.692;2023-02-17T06:23:32;100054.19;;;-6.02;90.27
61484;BME280;47349;55.640;37.692;2023-02-17T06:25:59;100049.72;;;-5.99;90.06
61484;BME280;47349;55.640;37.692;2023-02-17T06:28:26;100049.34;;;-5.91;89.41
61484;BME280;47349;55.640;37.692;2023-02-17T06:30:53;100050.19;;;-5.90;89.42
61484;BME280;47349;55.640;37.692;2023-02-17T06:33:20;100053.66;;;-5.90;88.80
61484;BME280;47349;55.640;37.692;2023-02-17T06:35:50;100053.34;;;-5.82;89.73
61484;BME280;47349;55.640;37.692;2023-02-17T06:38:18;100047.16;;;-5.80;89.83
61484;BME280;47349;55.640;37.692;2023-02-17T06:40:45;100050.44;;;-5.75;88.62
61484;BME280;47349;55.640;37.692;2023-02-17T06:43:12;100045.88;;;-5.70;88.46
61484;BME280;47349;55.640;37.692;2023-02-17T06:45:39;100056.97;;;-5.64;88.23
61484;BME280;47349;55.640;37.692;2023-02-17T06:48:06;100046.25;;;-5.58;87.90
61484;BME280;47349;55.640;37.692;2023-02-17T06:50:34;100049.31;;;-5.49;87.95
61484;BME280;47349;55.640;37.692;2023-02-17T06:53:01;100049.13;;;-5.44;87.72
61484;BME280;47349;55.640;37.692;2023-02-17T06:55:29;100047.44;;;-5.45;87.75
61484;BME280;47349;55.640;37.692;2023-02-17T06:58:16;100041.50;;;-5.69;87.10
61484;BME280;47349;55.640;37.692;2023-02-17T07:00:43;100044.56;;;-5.59;87.61
61484;BME280;47349;55.640;37.692;2023-02-17T07:03:10;100047.22;;;-5.61;88.17
61484;BME280;47349;55.640;37.692;2023-02-17T07:05:37;100046.19;;;-5.57;87.41
61484;BME280;47349;55.640;37.692;2023-02-17T07:08:05;100044.50;;;-5.58;86.89
61484;BME280;47349;55.640;37.692;2023-02-17T07:10:32;100046.13;;;-5.55;87.46
61484;BME280;47349;55.640;37.692;2023-02-17T07:13:00;100037.50;;;-5.57;86.51
61484;BME280;47349;55.640;37.692;2023-02-17T07:15:32;100042.88;;;-5.60;86.71
61484;BME280;47349;55.640;37.692;2023-02-17T07:18:00;100042.59;;;-5.54;86.43
61484;BME280;47349;55.640;37.692;2023-02-17T07:20:27;100038.94;;;-5.30;87.03
61484;BME280;47349;55.640;37.692;2023-02-17T07:22:54;100042.06;;;-5.22;84.41
61484;BME280;47349;55.640;37.692;2023-02-17T07:25:21;100044.97;;;-5.09;83.83
61484;BME280;47349;55.640;37.692;2023-02-17T07:27:48;100030.53;;;-4.97;82.91
61484;BME280;47349;55.640;37.692;2023-02-17T07:30:15;100024.72;;;-4.85;82.02
61484;BME280;47349;55.640;37.692;2023-02-17T07:32:43;100035.25;;;-4.68;81.13
61484;BME280;47349;55.640;37.692;2023-02-17T07:35:10;100036.19;;;-4.69;80.09
61484;BME280;47349;55.640;37.692;2023-02-17T07:37:37;100024.94;;;-4.71;79.89
61484;BME280;47349;55.640;37.692;2023-02-17T07:40:08;100026.06;;;-4.57;79.45
61484;BME280;47349;55.640;37.692;2023-02-17T07:42:35;100025.97;;;-4.56;79.67
61484;BME280;47349;55.640;37.692;2023-02-17T07:45:05;100026.28;;;-4.62;79.68
61484;BME280;47349;55.640;37.692;2023-02-17T07:47:32;100019.69;;;-4.71;79.89
61484;BME280;47349;55.640;37.692;2023-02-17T07:50:00;100032.34;;;-4.61;79.57
61484;BME280;47349;55.640;37.692;2023-02-17T07:52:28;100026.34;;;-4.63;78.96
61484;BME280;47349;55.640;37.692;2023-02-17T07:54:58;100033.06;;;-4.58;79.09
61484;BME280;47349;55.640;37.692;2023-02-17T07:57:25;100020.44;;;-4.50;79.39
61484;BME280;47349;55.640;37.692;2023-02-17T07:59:52;100021.44;;;-4.33;78.83
61484;BME280;47349;55.640;37.692;2023-02-17T08:02:20;100014.00;;;-4.24;78.39
61484;BME280;47349;55.640;37.692;2023-02-17T08:04:48;100017.16;;;-4.17;77.62
61484;BME280;47349;55.640;37.692;2023-02-17T08:07:20;100021.66;;;-4.21;77.40
61484;BME280;47349;55.640;37.692;2023-02-17T08:09:48;100016.22;;;-4.16;77.54
61484;BME280;47349;55.640;37.692;2023-02-17T08:12:36;100011.38;;;-4.06;77.47
61484;BME280;47349;55.640;37.692;2023-02-17T08:15:22;100018.16;;;-4.02;77.71
61484;BME280;47349;55.640;37.692;2023-02-17T08:17:51;100021.72;;;-4.03;77.94
61484;BME280;47349;55.640;37.692;2023-02-17T08:20:20;100024.19;;;-4.00;77.49
61484;BME280;47349;55.640;37.692;2023-02-17T08:23:01;100014.47;;;-4.16;77.09
61484;BME280;47349;55.640;37.692;2023-02-17T08:25:34;100016.75;;;-4.27;78.17
61484;BME280;47349;55.640;37.692;2023-02-17T08:28:03;100012.94;;;-4.20;78.40
61484;BME280;47349;55.640;37.692;2023-02-17T08:30:35;100010.13;;;-4.17;78.17
61484;BME280;47349;55.640;37.692;2023-02-17T08:33:09;100015.09;;;-4.10;78.74
61484;BME280;47349;55.640;37.692;2023-02-17T08:35:37;100012.16;;;-4.04;78.32
61484;BME280;47349;55.640;37.692;2023-02-17T08:38:04;100020.34;;;-3.93;78.85
61484;BME280;47349;55.640;37.692;2023-02-17T08:40:34;100015.94;;;-3.93;79.09
61484;BME280;47349;55.640;37.692;2023-02-17T08:43:01;100013.72;;;-4.00;78.44
61484;BME280;47349;55.640;37.692;2023-02-17T08:45:30;100013.41;;;-3.94;78.70
61484;BME280;47349;55.640;37.692;2023-02-17T08:47:58;100015.56;;;-3.85;78.48
61484;BME280;47349;55.640;37.692;2023-02-17T08:50:26;100006.31;;;-4.09;77.67
61484;BME280;47349;55.640;37.692;2023-02-17T08:52:53;100015.81;;;-4.26;77.71
61484;BME280;47349;55.640;37.692;2023-02-17T08:55:22;100013.56;;;-4.15;78.56
61484;BME280;47349;55.640;37.692;2023-02-17T08:58:04;100012.94;;;-4.02;78.44
61484;BME280;47349;55.640;37.692;2023-02-17T09:00:31;100008.03;;;-3.91;79.37
61484;BME280;47349;55.640;37.692;2023-02-17T09:02:59;100007.72;;;-3.85;79.16
61484;BME280;47349;55.640;37.692;2023-02-17T09:05:27;100001.06;;;-3.92;79.85
61484;BME280;47349;55.640;37.692;2023-02-17T09:07:54;100000.63;;;-3.83;80.53
61484;BME280;47349;55.640;37.692;2023-02-17T09:10:22;99999.72;;;-3.82;81.32
61484;BME280;47349;55.640;37.692;2023-02-17T09:13:05;100002.63;;;-3.88;81.63
61484;BME280;47349;55.640;37.692;2023-02-17T09:15:32;100001.47;;;-3.82;81.62
61484;BME280;47349;55.640;37.692;2023-02-17T09:18:00;99995.56;;;-3.86;80.69
61484;BME280;47349;55.640;37.692;2023-02-17T09:20:30;99998.91;;;-4.01;79.76
61484;BME280;47349;55.640;37.692;2023-02-17T09:22:57;100008.22;;;-4.13;80.95
61484;BME280;47349;55.640;37.692;2023-02-17T09:25:25;100001.09;;;-4.09;80.70
61484;BME280;47349;55.640;37.692;2023-02-17T09:27:52;100010.69;;;-3.93;80.61
61484;BME280;47349;55.640;37.692;2023-02-17T09:30:25;100001.78;;;-3.89;79.88
61484;BME280;47349;55.640;37.692;2023-02-17T09:32:52;99992.31;;;-3.91;79.12
61484;BME280;47349;55.640;37.692;2023-02-17T09:35:35;99988.91;;;-3.93;78.42
61484;BME280;47349;55.640;37.692;2023-02-17T09:38:04;99991.06;;;-3.84;78.77
61484;BME280;47349;55.640;37.692;2023-02-17T09:40:40;99986.78;;;-3.85;77.03
61484;BME280;47349;55.640;37.692;2023-02-17T09:43:11;99993.56;;;-3.81;77.13
61484;BME280;47349;55.640;37.692;2023-02-17T09:45:58;99989.34;;;-3.68;76.40
61484;BME280;47349;55.640;37.692;2023-02-17T09:48:33;99987.06;;;-3.56;76.15
61484;BME280;47349;55.640;37.692;2023-02-17T09:51:05;99990.38;;;-3.53;76.05
61484;BME280;47349;55.640;37.692;2023-02-17T09:53:46;99986.59;;;-3.47;76.14
61484;BME280;47349;55.640;37.692;2023-02-17T09:56:15;99987.19;;;-3.42;75.67
61484;BME280;47349;55.640;37.692;2023-02-17T09:58:51;99986.25;;;-3.41;76.22
61484;BME280;47349;55.640;37.692;2023-02-17T10:01:21;99975.44;;;-3.35;75.57
61484;BME280;47349;55.640;37.692;2023-02-17T10:06:20;99974.09;;;-3.42;75.36
61484;BME280;47349;55.640;37.692;2023-02-17T10:09:02;99978.16;;;-3.37;74.67
61484;BME280;47349;55.640;37.692;2023-02-17T10:14:19;99977.94;;;-3.49;74.87
61484;BME280;47349;55.640;37.692;2023-02-17T10:16:49;99975.03;;;-3.60;74.65
61484;BME280;47349;55.640;37.692;2023-02-17T10:19:20;99972.28;;;-3.57;74.37
61484;BME280;47349;55.640;37.692;2023-02-17T10:22:07;99965.03;;;-3.52;74.61
61484;BME280;47349;55.640;37.692;2023-02-17T10:24:37;99958.25;;;-3.56;73.97
61484;BME280;47349;55.640;37.692;2023-02-17T10:32:25;99956.13;;;-3.50;73.94
61484;BME280;47349;55.640;37.692;2023-02-17T10:40:17;99956.97;;;-3.49;74.81
61484;BME280;47349;55.640;37.692;2023-02-17T10:42:45;99957.69;;;-3.46;74.43
61484;BME280;47349;55.640;37.692;2023-02-17T10:45:25;99950.75;;;-3.47;74.51
61484;BME280;47349;55.640;37.692;2023-02-17T10:48:42;99946.50;;;-3.49;74.53
61484;BME280;47349;55.640;37.692;2023-02-17T10:51:01;99926.38;;;-3.49;75.14
61484;BME280;47349;55.640;37.692;2023-02-17T10:53:44;99923.84;;;-3.50;75.57
61484;BME280;47349;55.640;37.692;2023-02-17T10:56:14;99927.22;;;-3.48;76.03
61484;BME280;47349;55.640;37.692;2023-02-17T10:58:57;99924.47;;;-3.45;75.87
61484;BME280;47349;55.640;37.692;2023-02-17T11:01:26;99927.06;;;-3.45;76.74
61484;BME280;47349;55.640;37.692;2023-02-17T11:04:01;99923.84;;;-3.50;76.48
61484;BME280;47349;55.640;37.692;2023-02-17T11:06:47;99928.75;;;-3.44;76.76
61484;BME280;47349;55.640;37.692;2023-02-17T11:09:25;99929.53;;;-3.42;77.05
61484;BME280;47349;55.640;37.692;2023-02-17T11:12:12;99920.84;;;-3.43;77.06
61484;BME280;47349;55.640;37.692;2023-02-17T11:14:44;99916.34;;;-3.41;76.93
61484;BME280;47349;55.640;37.692;2023-02-17T11:17:34;99918.94;;;-3.56;77.75
61484;BME280;47349;55.640;37.692;2023-02-17T11:20:01;99927.44;;;-3.69;79.50
61484;BME280;47349;55.640;37.692;2023-02-17T11:24:59;99930.13;;;-3.70;80.24
61484;BME280;47349;55.640;37.692;2023-02-17T11:27:26;99925.28;;;-3.78;80.16
61484;BME280;47349;55.640;37.692;2023-02-17T11:30:03;99918.59;;;-3.83;78.46
61484;BME280;47349;55.640;37.692;2023-02-17T11:32:31;99918.44;;;-3.80;78.59
61484;BME280;47349;55.640;37.692;2023-02-17T11:35:01;99911.44;;;-3.80;78.50
61484;BME280;47349;55.640;37.692;2023-02-17T11:37:43;99911.06;;;-3.90;77.17
61484;BME280;47349;55.640;37.692;2023-02-17T11:40:29;99905.22;;;-3.95;76.95
61484;BME280;47349;55.640;37.692;2023-02-17T11:42:58;99909.56;;;-3.78;77.16
61484;BME280;47349;55.640;37.692;2023-02-17T11:45:38;99906.97;;;-3.78;76.41
61484;BME280;47349;55.640;37.692;2023-02-17T11:51:38;99900.81;;;-3.77;76.56
61484;BME280;47349;55.640;37.692;2023-02-17T11:53:52;99903.81;;;-3.84;76.90
61484;BME280;47349;55.640;37.692;2023-02-17T11:56:26;99897.75;;;-3.85;77.12
61484;BME280;47349;55.640;37.692;2023-02-17T12:04:50;99892.38;;;-3.99;76.95
61484;BME280;47349;55.640;37.692;2023-02-17T12:31:42;99869.78;;;-3.51;76.91
61484;BME280;47349;55.640;37.692;2023-02-17T12:34:28;99879.47;;;-3.53;75.74
61484;BME280;47349;55.640;37.692;2023-02-17T12:36:56;99876.25;;;-3.58;76.05
61484;BME280;47349;55.640;37.692;2023-02-17T12:42:34;99879.34;;;-3.68;76.86
61484;BME280;47349;55.640;37.692;2023-02-17T12:45:17;99876.59;;;-3.65;77.38
61484;BME280;47349;55.640;37.692;2023-02-17T12:47:49;99882.06;;;-3.69;76.88
61484;BME280;47349;55.640;37.692;2023-02-17T12:50:22;99886.47;;;-3.70;77.45
61484;BME280;47349;55.640;37.692;2023-02-17T12:52:53;99876.22;;;-3.74;78.35
61484;BME280;47349;55.640;37.692;2023-02-17T12:55:28;99877.53;;;-3.83;77.50
61484;BME280;47349;55.640;37.692;2023-02-17T12:58:02;99881.88;;;-3.82;77.43
61484;BME280;47349;55.640;37.692;2023-02-17T13:00:34;99874.03;;;-3.82;76.70
61484;BME280;47349;55.640;37.692;2023-02-17T13:03:03;99874.63;;;-3.77;76.55
61484;BME280;47349;55.640;37.692;2023-02-17T13:08:06;99874.78;;;-3.80;76.75
61484;BME280;47349;55.640;37.692;2023-02-17T13:10:37;99870.38;;;-3.79;76.27
61484;BME280;47349;55.640;37.692;2023-02-17T13:18:06;99866.66;;;-3.91;76.08
61484;BME280;47349;55.640;37.692;2023-02-17T13:23:31;99861.09;;;-3.85;76.04
61484;BME280;47349;55.640;37.692;2023-02-17T13:28:47;99858.91;;;-3.77;75.81
61484;BME280;47349;55.640;37.692;2023-02-17T13:33:57;99861.09;;;-3.85;75.83
61484;BME280;47349;55.640;37.692;2023-02-17T13:38:56;99868.81;;;-3.99;76.49
61484;BME280;47349;55.640;37.692;2023-02-17T13:42:00;99855.47;;;-3.95;77.15
61484;BME280;47349;55.640;37.692;2023-02-17T13:46:55;99845.25;;;-3.99;76.63
61484;BME280;47349;55.640;37.692;2023-02-17T13:49:24;99851.56;;;-4.03;76.36
61484;BME280;47349;55.640;37.692;2023-02-17T13:51:55;99851.41;;;-4.00;76.04
61484;BME280;47349;55.640;37.692;2023-02-17T13:54:32;99851.09;;;-4.11;75.45
61484;BME280;47349;55.640;37.692;2023-02-17T13:57:00;99845.97;;;-4.13;76.19
61484;BME280;47349;55.640;37.692;2023-02-17T13:59:41;99851.88;;;-4.09;76.87
61484;BME280;47349;55.640;37.692;2023-02-17T14:02:15;99850.88;;;-4.07;77.45
61484;BME280;47349;55.640;37.692;2023-02-17T14:05:03;99847.34;;;-4.06;77.57
61484;BME280;47349;55.640;37.692;2023-02-17T14:07:33;99841.19;;;-4.05;77.69
61484;BME280;47349;55.640;37.692;2023-02-17T14:10:02;99849.09;;;-4.06;77.99
61484;BME280;47349;55.640;37.692;2023-02-17T14:12:29;99839.03;;;-4.14;78.31
61484;BME280;47349;55.640;37.692;2023-02-17T14:14:56;99832.13;;;-4.15;77.58
61484;BME280;47349;55.640;37.692;2023-02-17T14:17:27;99833.09;;;-4.18;76.97
61484;BME280;47349;55.640;37.692;2023-02-17T14:20:04;99835.97;;;-4.22;77.11
61484;BME280;47349;55.640;37.692;2023-02-17T14:22:33;99836.97;;;-4.25;77.22
61484;BME280;47349;55.640;37.692;2023-02-17T14:27:40;99828.81;;;-4.36;76.63
61484;BME280;47349;55.640;37.692;2023-02-17T14:30:13;99829.00;;;-4.39;77.01
61484;BME280;47349;55.640;37.692;2023-02-17T14:32:40;99827.44;;;-4.43;76.81
61484;BME280;47349;55.640;37.692;2023-02-17T14:35:29;99834.38;;;-4.42;76.42
61484;BME280;47349;55.640;37.692;2023-02-17T14:38:05;99838.00;;;-4.45;76.31
61484;BME280;47349;55.640;37.692;2023-02-17T14:40:36;99831.88;;;-4.45;76.41
61484;BME280;47349;55.640;37.692;2023-02-17T14:43:20;99838.97;;;-4.47;76.86
61484;BME280;47349;55.640;37.692;2023-02-17T14:45:48;99837.44;;;-4.51;76.46
61484;BME280;47349;55.640;37.692;2023-02-17T14:48:15;99837.44;;;-4.51;76.47